createdAt,value
2017-12-03T00:00:57.499Z,90.94
2017-12-03T00:03:26.609Z,90.72
2017-12-03T00:05:54.931Z,90.51
2017-12-03T00:08:23.305Z,90.63
2017-12-03T00:10:52.338Z,90.84
2017-12-03T00:13:21.418Z,91.27
2017-12-03T00:15:49.794Z,91.07
2017-12-03T00:18:18.115Z,91.33
2017-12-03T00:20:46.435Z,91.38
2017-12-03T00:23:14.778Z,91.55
2017-12-03T00:25:43.095Z,91.27
2017-12-03T00:28:11.442Z,91.18
2017-12-03T00:30:39.760Z,91.22
2017-12-03T00:33:08.112Z,91.33
2017-12-03T00:35:36.447Z,91.72
2017-12-03T00:38:04.767Z,91.81
2017-12-03T00:40:33.115Z,91.54
2017-12-03T00:43:01.428Z,91.65
2017-12-03T00:45:30.516Z,91.44
2017-12-03T00:47:58.883Z,91.36
2017-12-03T00:50:27.203Z,91.40
2017-12-03T00:52:55.520Z,91.73
2017-12-03T00:55:23.882Z,92.23
2017-12-03T00:57:52.216Z,92.75
2017-12-03T01:00:20.563Z,93.00
2017-12-03T01:02:48.888Z,92.96
2017-12-03T01:05:17.211Z,92.92
2017-12-03T01:07:45.552Z,92.85
2017-12-03T01:10:14.645Z,93.25
2017-12-03T01:12:43.756Z,93.32
2017-12-03T01:15:12.082Z,93.45
2017-12-03T01:17:40.456Z,93.54
2017-12-03T01:20:08.779Z,93.58
2017-12-03T01:22:37.913Z,93.70
2017-12-03T01:25:06.295Z,93.61
2017-12-03T01:27:34.629Z,93.58
2017-12-03T01:30:03.723Z,93.63
2017-12-03T01:32:32.091Z,93.52
2017-12-03T01:35:00.417Z,93.38
2017-12-03T01:37:28.756Z,93.17
2017-12-03T01:39:57.871Z,93.00
2017-12-03T01:42:26.989Z,92.87
2017-12-03T01:44:55.340Z,92.76
2017-12-03T01:47:24.454Z,92.80
2017-12-03T01:49:52.797Z,92.81
2017-12-03T01:52:21.124Z,92.70
2017-12-03T01:54:49.455Z,92.55
2017-12-03T01:57:18.580Z,92.45
2017-12-03T01:59:46.904Z,92.46
2017-12-03T02:02:15.228Z,92.46
2017-12-03T02:04:43.605Z,92.37
2017-12-03T02:07:11.935Z,92.20
2017-12-03T02:09:40.279Z,92.08
2017-12-03T02:12:08.600Z,91.90
2017-12-03T02:14:36.947Z,91.68
2017-12-03T02:17:05.300Z,91.56
2017-12-03T02:19:33.643Z,91.61
2017-12-03T02:22:01.963Z,91.64
2017-12-03T02:24:30.330Z,91.63
2017-12-03T02:26:58.667Z,91.69
2017-12-03T02:29:26.991Z,91.95
2017-12-03T02:31:55.343Z,92.00
2017-12-03T02:34:24.460Z,92.11
2017-12-03T02:36:52.830Z,92.04
2017-12-03T02:39:21.917Z,92.01
2017-12-03T02:41:51.026Z,92.03
2017-12-03T02:44:20.116Z,92.02
2017-12-03T02:46:48.475Z,92.05
2017-12-03T02:49:16.800Z,91.97
2017-12-03T02:51:45.139Z,91.76
2017-12-03T02:54:14.251Z,91.48
2017-12-03T02:56:43.364Z,91.08
2017-12-03T02:59:11.725Z,91.05
2017-12-03T03:01:40.073Z,90.45
2017-12-03T03:04:08.427Z,90.40
2017-12-03T03:06:37.519Z,90.21
2017-12-03T03:09:05.855Z,89.83
2017-12-03T03:11:34.204Z,89.43
2017-12-03T03:14:02.536Z,89.02
2017-12-03T03:16:30.889Z,88.74
2017-12-03T03:18:59.212Z,88.90
2017-12-03T03:21:27.550Z,89.09
2017-12-03T03:23:55.876Z,89.10
2017-12-03T03:26:24.242Z,89.29
2017-12-03T03:28:52.565Z,89.44
2017-12-03T03:31:21.714Z,89.38
2017-12-03T03:33:50.045Z,89.20
2017-12-03T03:36:19.144Z,89.14
2017-12-03T03:38:48.264Z,89.12
2017-12-03T03:41:16.595Z,88.90
2017-12-03T03:43:44.924Z,88.76
2017-12-03T03:46:13.267Z,88.68
2017-12-03T03:48:42.365Z,88.82
2017-12-03T03:51:11.475Z,88.76
2017-12-03T03:53:39.799Z,89.11
2017-12-03T03:56:08.158Z,89.43
2017-12-03T03:58:36.484Z,89.79
2017-12-03T04:01:05.573Z,89.63
2017-12-03T04:03:33.933Z,89.51
2017-12-03T04:06:02.263Z,89.29
2017-12-03T04:08:30.583Z,89.04
2017-12-03T04:10:58.929Z,89.18
2017-12-03T04:13:27.272Z,89.20
2017-12-03T04:15:56.395Z,89.05
2017-12-03T04:18:24.721Z,89.08
2017-12-03T04:20:53.045Z,89.16
2017-12-03T04:23:21.441Z,89.36
2017-12-03T04:25:49.800Z,89.52
2017-12-03T04:28:18.124Z,89.44
2017-12-03T04:30:46.455Z,89.59
2017-12-03T04:33:14.804Z,89.46
2017-12-03T04:35:43.132Z,89.41
2017-12-03T04:38:11.464Z,89.41
2017-12-03T04:40:39.826Z,89.36
2017-12-03T04:43:08.152Z,89.22
2017-12-03T04:45:36.481Z,89.15
2017-12-03T04:48:04.856Z,88.90
2017-12-03T04:50:33.181Z,88.57
2017-12-03T04:53:01.529Z,88.53
2017-12-03T04:55:30.623Z,88.36
2017-12-03T04:57:59.188Z,88.18
2017-12-03T05:00:27.526Z,87.79
2017-12-03T05:02:55.867Z,87.70
2017-12-03T05:05:24.979Z,87.48
2017-12-03T05:07:54.091Z,87.37
2017-12-03T05:10:22.414Z,87.59
2017-12-03T05:12:50.742Z,87.37
2017-12-03T05:15:19.091Z,87.19
2017-12-03T05:17:47.424Z,87.05
2017-12-03T05:20:15.754Z,87.17
2017-12-03T05:22:44.860Z,87.05
2017-12-03T05:25:13.980Z,86.91
2017-12-03T05:27:42.347Z,87.15
2017-12-03T05:30:10.685Z,87.25
2017-12-03T05:32:39.019Z,87.24
2017-12-03T05:35:07.363Z,87.04
2017-12-03T05:37:36.444Z,86.73
2017-12-03T05:40:04.788Z,86.71
2017-12-03T05:42:33.119Z,86.68
2017-12-03T05:45:01.481Z,86.72
2017-12-03T05:47:29.811Z,86.85
2017-12-03T05:49:58.126Z,86.46
2017-12-03T05:52:26.465Z,85.99
2017-12-03T05:54:54.775Z,86.23
2017-12-03T05:57:23.116Z,85.93
2017-12-03T05:59:51.460Z,85.95
2017-12-03T06:02:20.567Z,86.00
2017-12-03T06:04:48.919Z,85.99
2017-12-03T06:07:18.012Z,86.19
2017-12-03T06:09:47.106Z,86.19
2017-12-03T06:12:15.451Z,86.42
2017-12-03T06:14:43.771Z,86.33
2017-12-03T06:17:12.875Z,87.55
2017-12-03T06:19:41.992Z,87.02
2017-12-03T06:22:10.332Z,87.01
2017-12-03T06:24:39.445Z,87.01
2017-12-03T06:27:08.544Z,87.03
2017-12-03T06:29:36.900Z,87.62
2017-12-03T06:32:05.220Z,87.30
2017-12-03T06:34:33.536Z,87.23
2017-12-03T06:37:01.929Z,86.78
2017-12-03T06:39:30.246Z,87.13
2017-12-03T06:41:58.569Z,87.07
2017-12-03T06:44:26.914Z,86.72
2017-12-03T06:46:55.263Z,86.34
2017-12-03T06:49:24.348Z,86.65
2017-12-03T06:51:53.441Z,86.92
2017-12-03T06:54:22.567Z,87.37
2017-12-03T06:56:50.882Z,87.28
2017-12-03T06:59:19.196Z,87.26
2017-12-03T07:01:48.310Z,87.82
2017-12-03T07:04:16.638Z,87.27
2017-12-03T07:06:44.952Z,87.79
2017-12-03T07:09:14.065Z,87.37
2017-12-03T07:11:42.422Z,87.89
2017-12-03T07:14:10.740Z,87.46
2017-12-03T07:16:39.088Z,87.45
2017-12-03T07:19:07.439Z,87.63
2017-12-03T07:21:35.759Z,88.39
2017-12-03T07:24:04.087Z,87.92
2017-12-03T07:26:32.429Z,87.59
2017-12-03T07:29:00.751Z,88.40
2017-12-03T07:31:29.119Z,87.90
2017-12-03T07:33:57.431Z,87.58
2017-12-03T07:36:25.758Z,87.43
2017-12-03T07:38:54.876Z,87.83
2017-12-03T07:41:23.192Z,87.96
2017-12-03T07:43:51.512Z,87.68
2017-12-03T07:46:19.873Z,87.38
2017-12-03T07:48:48.193Z,87.20
2017-12-03T07:51:16.580Z,87.46
2017-12-03T07:53:45.696Z,86.73
2017-12-03T07:56:14.076Z,86.85
2017-12-03T07:58:42.410Z,87.07
2017-12-03T08:01:10.743Z,87.03
2017-12-03T08:03:39.106Z,87.18
2017-12-03T08:06:07.440Z,87.39
2017-12-03T08:08:35.754Z,87.04
2017-12-03T08:11:04.875Z,86.48
2017-12-03T08:13:33.260Z,86.64
2017-12-03T08:16:01.590Z,87.10
2017-12-03T08:18:30.818Z,86.53
2017-12-03T08:20:59.139Z,87.38
2017-12-03T08:23:27.467Z,88.04
2017-12-03T08:25:55.813Z,88.11
2017-12-03T08:28:24.159Z,87.07
2017-12-03T08:30:52.500Z,86.71
2017-12-03T08:33:20.826Z,86.79
2017-12-03T08:35:49.168Z,86.84
2017-12-03T08:38:17.527Z,86.76
2017-12-03T08:40:45.877Z,86.77
2017-12-03T08:43:14.201Z,86.64
2017-12-03T08:45:42.559Z,86.50
2017-12-03T08:48:11.653Z,88.02
2017-12-03T08:50:40.743Z,88.53
2017-12-03T08:53:09.855Z,88.58
2017-12-03T08:55:38.182Z,89.18
2017-12-03T08:58:06.512Z,88.35
2017-12-03T09:00:34.881Z,87.98
2017-12-03T09:03:03.971Z,87.96
2017-12-03T09:05:33.063Z,87.83
2017-12-03T09:08:02.167Z,87.82
2017-12-03T09:10:31.281Z,87.51
2017-12-03T09:12:59.607Z,87.54
2017-12-03T09:15:27.964Z,88.58
2017-12-03T09:17:56.309Z,88.23
2017-12-03T09:20:24.640Z,88.07
2017-12-03T09:22:52.996Z,88.94
2017-12-03T09:25:21.355Z,88.39
2017-12-03T09:27:49.726Z,88.93
2017-12-03T09:30:18.121Z,88.56
2017-12-03T09:32:46.920Z,89.22
2017-12-03T09:35:15.318Z,89.20
2017-12-03T09:37:43.708Z,88.92
2017-12-03T09:40:12.055Z,88.45
2017-12-03T09:42:40.370Z,89.32
2017-12-03T09:45:08.799Z,93.05
2017-12-03T09:47:37.140Z,89.36
2017-12-03T09:50:06.310Z,89.67
2017-12-03T09:52:34.629Z,89.58
2017-12-03T09:55:02.968Z,89.81
2017-12-03T09:57:31.327Z,89.76
2017-12-03T10:00:00.440Z,90.25
2017-12-03T10:02:29.188Z,90.27
2017-12-03T10:04:57.539Z,90.44
2017-12-03T10:07:26.658Z,90.23
2017-12-03T10:09:55.002Z,90.05
2017-12-03T10:12:24.924Z,90.24
2017-12-03T10:14:54.077Z,89.57
2017-12-03T10:17:22.412Z,90.50
2017-12-03T10:19:50.736Z,90.24
2017-12-03T10:22:19.132Z,89.68
2017-12-03T10:24:47.460Z,89.22
2017-12-03T10:27:15.799Z,89.58
2017-12-03T10:29:44.168Z,89.00
2017-12-03T10:32:12.500Z,89.52
2017-12-03T10:34:40.957Z,89.93
2017-12-03T10:37:10.068Z,89.81
2017-12-03T10:39:38.425Z,89.76
2017-12-03T10:42:07.506Z,89.87
2017-12-03T10:44:35.829Z,90.76
2017-12-03T10:47:04.174Z,90.23
2017-12-03T10:49:33.260Z,95.46
2017-12-03T10:52:02.381Z,89.48
2017-12-03T10:54:30.732Z,88.47
2017-12-03T10:56:59.052Z,89.27
2017-12-03T10:59:27.379Z,89.86
2017-12-03T11:01:55.736Z,89.85
2017-12-03T11:04:24.063Z,90.15
2017-12-03T11:06:53.152Z,90.01
2017-12-03T11:09:22.272Z,90.21
2017-12-03T11:11:50.625Z,89.85
2017-12-03T11:14:19.730Z,90.11
2017-12-03T11:16:48.059Z,90.65
2017-12-03T11:19:16.388Z,90.45
2017-12-03T11:21:44.723Z,90.90
2017-12-03T11:24:13.063Z,90.79
2017-12-03T11:26:41.376Z,90.39
2017-12-03T11:29:10.175Z,91.25
2017-12-03T11:31:38.700Z,90.67
2017-12-03T11:34:07.028Z,90.96
2017-12-03T11:36:35.397Z,91.26
2017-12-03T11:39:04.504Z,90.77
2017-12-03T11:41:32.833Z,91.01
2017-12-03T11:44:01.253Z,90.93
2017-12-03T11:46:29.596Z,90.48
2017-12-03T11:48:57.969Z,91.24
2017-12-03T11:51:26.288Z,90.99
2017-12-03T11:53:54.635Z,91.15
2017-12-03T11:56:22.983Z,91.13
2017-12-03T11:58:52.092Z,91.36
2017-12-03T12:01:21.178Z,91.10
2017-12-03T12:03:50.301Z,91.27
2017-12-03T12:06:18.624Z,91.21
2017-12-03T12:08:46.970Z,91.49
2017-12-03T12:11:15.316Z,91.86
2017-12-03T12:13:43.644Z,91.80
2017-12-03T12:16:11.971Z,91.67
2017-12-03T12:18:40.327Z,92.02
2017-12-03T12:21:09.403Z,92.76
2017-12-03T12:23:37.735Z,92.18
2017-12-03T12:26:06.080Z,91.73
2017-12-03T12:28:35.192Z,91.53
2017-12-03T12:31:03.569Z,92.43
2017-12-03T12:33:31.896Z,92.50
2017-12-03T12:36:00.221Z,92.45
2017-12-03T12:38:28.564Z,92.15
2017-12-03T12:40:56.887Z,91.87
2017-12-03T12:43:25.200Z,92.07
2017-12-03T12:45:53.549Z,92.00
2017-12-03T12:48:21.876Z,91.94
2017-12-03T12:50:50.244Z,92.18
2017-12-03T12:53:18.563Z,92.15
2017-12-03T12:55:47.642Z,92.21
2017-12-03T12:58:15.991Z,92.71
2017-12-03T13:00:44.484Z,92.69
2017-12-03T13:03:12.804Z,92.36
2017-12-03T13:05:41.165Z,92.62
2017-12-03T13:08:10.255Z,92.67
2017-12-03T13:10:39.603Z,92.36
2017-12-03T13:13:07.956Z,92.62
2017-12-03T13:15:36.529Z,92.64
2017-12-03T13:18:05.635Z,92.84
2017-12-03T13:20:33.968Z,92.83
2017-12-03T13:23:02.315Z,92.82
2017-12-03T13:25:30.653Z,92.80
2017-12-03T13:27:59.788Z,92.61
2017-12-03T13:30:28.117Z,92.64
2017-12-03T13:32:56.452Z,92.66
2017-12-03T13:35:24.821Z,92.83
2017-12-03T13:37:53.144Z,93.18
2017-12-03T13:40:21.465Z,93.08
2017-12-03T13:42:49.820Z,92.80
2017-12-03T13:45:18.157Z,92.90
2017-12-03T13:47:46.527Z,92.83
2017-12-03T13:50:14.855Z,93.23
2017-12-03T13:52:43.945Z,93.23
2017-12-03T13:55:12.340Z,93.22
2017-12-03T13:57:40.671Z,93.15
2017-12-03T14:00:08.993Z,93.44
2017-12-03T14:02:38.115Z,93.80
2017-12-03T14:05:06.439Z,93.86
2017-12-03T14:07:34.769Z,93.55
2017-12-03T14:10:03.124Z,93.34
2017-12-03T14:12:31.440Z,93.34
2017-12-03T14:14:59.757Z,93.22
2017-12-03T14:17:28.109Z,93.29
2017-12-03T14:19:56.451Z,93.42
2017-12-03T14:22:24.760Z,93.55
2017-12-03T14:24:53.120Z,93.75
2017-12-03T14:27:21.690Z,93.70
2017-12-03T14:29:50.052Z,93.87
2017-12-03T14:32:18.391Z,93.85
2017-12-03T14:34:46.740Z,93.89
2017-12-03T14:37:15.056Z,93.54
2017-12-03T14:39:43.385Z,93.57
2017-12-03T14:42:11.742Z,93.91
2017-12-03T14:44:40.866Z,94.10
2017-12-03T14:47:09.201Z,93.92
2017-12-03T14:49:38.311Z,93.85
2017-12-03T14:52:06.674Z,96.00
2017-12-03T14:54:35.758Z,95.12
2017-12-03T14:57:04.075Z,94.22
2017-12-03T14:59:32.436Z,94.30
2017-12-03T15:02:01.515Z,94.58
2017-12-03T15:04:29.835Z,94.69
2017-12-03T15:06:58.186Z,94.78
2017-12-03T15:09:27.263Z,94.72
2017-12-03T15:11:55.588Z,94.69
2017-12-03T15:14:24.785Z,94.60
2017-12-03T15:16:53.169Z,94.80
2017-12-03T15:19:22.207Z,94.73
2017-12-03T15:21:50.544Z,94.43
2017-12-03T15:24:18.883Z,94.61
2017-12-03T15:26:47.967Z,94.20
2017-12-03T15:29:17.080Z,94.14
2017-12-03T15:31:45.410Z,94.32
2017-12-03T15:34:13.763Z,94.55
2017-12-03T15:36:42.116Z,94.76
2017-12-03T15:39:10.913Z,94.62
2017-12-03T15:41:39.283Z,94.54
2017-12-03T15:44:07.599Z,94.30
2017-12-03T15:46:35.935Z,93.94
2017-12-03T15:49:04.284Z,94.04
2017-12-03T15:51:32.640Z,94.11
2017-12-03T15:54:00.963Z,94.13
2017-12-03T15:56:30.053Z,94.30
2017-12-03T15:58:59.152Z,94.25
2017-12-03T16:01:28.245Z,94.53
2017-12-03T16:03:57.356Z,94.48
2017-12-03T16:06:25.694Z,94.53
2017-12-03T16:08:54.037Z,94.44
2017-12-03T16:11:22.352Z,94.39
2017-12-03T16:13:50.695Z,94.47
2017-12-03T16:16:19.013Z,94.43
2017-12-03T16:18:47.360Z,94.47
2017-12-03T16:21:15.692Z,94.20
2017-12-03T16:23:44.769Z,94.12
2017-12-03T16:26:13.125Z,93.63
2017-12-03T16:28:41.451Z,94.61
2017-12-03T16:31:09.775Z,93.98
2017-12-03T16:33:38.128Z,93.36
2017-12-03T16:36:06.447Z,92.97
2017-12-03T16:38:34.836Z,92.87
2017-12-03T16:41:03.164Z,93.21
2017-12-03T16:43:31.495Z,93.32
2017-12-03T16:45:59.911Z,93.40
2017-12-03T16:48:28.263Z,93.25
2017-12-03T16:50:57.352Z,93.14
2017-12-03T16:53:26.439Z,93.13
2017-12-03T16:55:54.800Z,93.16
2017-12-03T16:58:23.139Z,93.07
2017-12-03T17:00:52.042Z,92.89
2017-12-03T17:03:20.374Z,92.96
2017-12-03T17:05:49.459Z,92.97
2017-12-03T17:08:17.795Z,93.15
2017-12-03T17:10:46.127Z,93.26
2017-12-03T17:13:15.291Z,93.33
2017-12-03T17:15:43.608Z,93.62
2017-12-03T17:18:12.689Z,93.70
2017-12-03T17:20:41.835Z,93.87
2017-12-03T17:23:10.147Z,93.87
2017-12-03T17:25:38.476Z,93.77
2017-12-03T17:28:06.814Z,93.99
2017-12-03T17:30:35.167Z,94.26
2017-12-03T17:33:03.519Z,94.00
2017-12-03T17:35:31.851Z,94.10
2017-12-03T17:38:00.179Z,93.96
2017-12-03T17:40:28.541Z,94.06
2017-12-03T17:42:56.860Z,94.25
2017-12-03T17:45:25.183Z,93.95
2017-12-03T17:47:54.295Z,93.88
2017-12-03T17:50:22.612Z,93.86
2017-12-03T17:52:50.960Z,93.57
2017-12-03T17:55:19.287Z,93.80
2017-12-03T17:57:47.608Z,93.80
2017-12-03T18:00:15.952Z,93.85
2017-12-03T18:02:45.039Z,93.96
2017-12-03T18:05:13.396Z,93.95
2017-12-03T18:07:41.725Z,93.93
2017-12-03T18:10:10.065Z,93.79
2017-12-03T18:12:38.431Z,93.49
2017-12-03T18:15:06.777Z,93.38
2017-12-03T18:17:35.099Z,93.23
2017-12-03T18:20:03.501Z,93.46
2017-12-03T18:22:31.796Z,94.58
2017-12-03T18:25:00.120Z,93.79
2017-12-03T18:27:28.477Z,93.70
2017-12-03T18:29:56.791Z,93.56
2017-12-03T18:32:25.131Z,93.72
2017-12-03T18:34:53.450Z,94.04
2017-12-03T18:37:21.802Z,94.07
2017-12-03T18:39:50.127Z,94.15
2017-12-03T18:42:19.237Z,93.78
2017-12-03T18:44:47.571Z,93.79
2017-12-03T18:47:15.895Z,93.99
2017-12-03T18:49:44.262Z,93.81
2017-12-03T18:52:12.624Z,93.83
2017-12-03T18:54:41.714Z,93.89
2017-12-03T18:57:10.809Z,94.10
2017-12-03T18:59:39.184Z,94.01
2017-12-03T19:02:08.284Z,93.85
2017-12-03T19:04:37.379Z,94.06
2017-12-03T19:07:05.710Z,94.32
2017-12-03T19:09:34.033Z,94.23
2017-12-03T19:12:02.384Z,94.17
2017-12-03T19:14:30.706Z,94.17
2017-12-03T19:16:59.797Z,94.16
2017-12-03T19:19:28.931Z,94.15
2017-12-03T19:21:57.248Z,94.00
2017-12-03T19:24:25.588Z,94.03
2017-12-03T19:26:53.907Z,93.87
2017-12-03T19:29:22.260Z,94.03
2017-12-03T19:31:50.587Z,94.14
2017-12-03T19:34:18.907Z,93.99
2017-12-03T19:36:47.246Z,93.77
2017-12-03T19:39:15.604Z,93.65
2017-12-03T19:41:43.932Z,93.72
2017-12-03T19:44:12.268Z,93.68
2017-12-03T19:46:41.379Z,93.13
2017-12-03T19:49:09.711Z,93.35
2017-12-03T19:51:38.065Z,93.41
2017-12-03T19:54:06.416Z,93.39
2017-12-03T19:56:34.765Z,93.56
2017-12-03T19:59:03.887Z,93.61
2017-12-03T20:01:32.216Z,93.50
2017-12-03T20:04:00.559Z,93.65
2017-12-03T20:06:28.899Z,93.65
2017-12-03T20:08:58.002Z,93.69
2017-12-03T20:11:27.096Z,93.62
2017-12-03T20:13:56.196Z,93.58
2017-12-03T20:16:25.281Z,93.56
2017-12-03T20:18:54.396Z,93.43
2017-12-03T20:21:22.724Z,93.48
2017-12-03T20:23:51.039Z,93.61
2017-12-03T20:26:20.161Z,93.35
2017-12-03T20:28:48.515Z,93.61
2017-12-03T20:31:17.624Z,93.47
2017-12-03T20:33:45.949Z,93.51
2017-12-03T20:36:14.354Z,93.58
2017-12-03T20:38:43.465Z,93.49
2017-12-03T20:41:12.548Z,93.71
2017-12-03T20:43:41.668Z,93.54
2017-12-03T20:46:10.005Z,93.61
2017-12-03T20:48:38.369Z,93.37
2017-12-03T20:51:07.459Z,93.49
2017-12-03T20:53:36.544Z,93.47
2017-12-03T20:56:04.888Z,93.55
2017-12-03T20:58:33.974Z,93.71
2017-12-03T21:01:03.099Z,93.77
2017-12-03T21:03:31.429Z,93.84
2017-12-03T21:06:00.533Z,93.79
2017-12-03T21:08:29.680Z,93.83
2017-12-03T21:10:58.003Z,93.83
2017-12-03T21:13:26.335Z,93.72
2017-12-03T21:15:54.675Z,93.97
2017-12-03T21:18:23.813Z,93.87
2017-12-03T21:20:52.875Z,94.10
2017-12-03T21:23:21.987Z,94.29
2017-12-03T21:25:50.339Z,94.39
2017-12-03T21:28:19.456Z,94.45
2017-12-03T21:30:47.768Z,94.58
2017-12-03T21:33:16.116Z,94.39
2017-12-03T21:35:44.431Z,94.47
2017-12-03T21:38:12.767Z,94.34
2017-12-03T21:40:41.112Z,94.43
2017-12-03T21:43:10.198Z,94.41
2017-12-03T21:45:38.557Z,94.35
2017-12-03T21:48:06.967Z,94.18
2017-12-03T21:50:35.306Z,94.20
2017-12-03T21:53:03.623Z,94.10
2017-12-03T21:55:32.755Z,94.12
2017-12-03T21:58:01.108Z,93.99
2017-12-03T22:00:30.217Z,94.20
2017-12-03T22:02:58.549Z,93.92
2017-12-03T22:05:26.909Z,93.86
2017-12-03T22:07:55.234Z,93.79
2017-12-03T22:10:24.359Z,94.14
2017-12-03T22:12:52.676Z,94.03
2017-12-03T22:15:21.012Z,94.17
2017-12-03T22:17:49.351Z,94.16
2017-12-03T22:20:17.672Z,94.31
2017-12-03T22:22:46.036Z,94.27
2017-12-03T22:25:14.384Z,94.36
2017-12-03T22:27:42.731Z,94.39
2017-12-03T22:30:11.068Z,94.53
2017-12-03T22:32:39.460Z,94.54
2017-12-03T22:35:07.816Z,94.42
2017-12-03T22:37:36.895Z,94.38
2017-12-03T22:40:06.724Z,94.46
2017-12-03T22:42:35.859Z,94.51
2017-12-03T22:45:04.197Z,94.37
2017-12-03T22:47:33.294Z,94.33
2017-12-03T22:50:02.395Z,94.38
2017-12-03T22:52:30.744Z,94.47
2017-12-03T22:54:59.064Z,94.53
2017-12-03T22:57:27.380Z,94.72
2017-12-03T22:59:55.730Z,94.45
2017-12-03T23:02:24.063Z,94.46
2017-12-03T23:04:53.142Z,94.69
2017-12-03T23:07:21.487Z,94.53
2017-12-03T23:09:49.836Z,94.62
2017-12-03T23:12:18.152Z,94.63
2017-12-03T23:14:46.471Z,94.68
2017-12-03T23:17:15.633Z,94.68
2017-12-03T23:19:43.948Z,94.76
2017-12-03T23:22:13.032Z,94.87
2017-12-03T23:24:41.403Z,94.76
2017-12-03T23:27:09.711Z,94.76
2017-12-03T23:29:38.843Z,94.80
2017-12-03T23:32:07.163Z,94.89
2017-12-03T23:34:35.503Z,94.83
2017-12-03T23:37:03.848Z,94.91
2017-12-03T23:39:32.216Z,94.77
2017-12-03T23:42:01.327Z,94.58
2017-12-03T23:44:29.683Z,94.48
2017-12-03T23:46:58.781Z,94.48
2017-12-03T23:49:27.895Z,94.41
2017-12-03T23:51:56.236Z,94.35
2017-12-03T23:54:24.551Z,94.32
2017-12-03T23:56:52.898Z,94.47
2017-12-03T23:59:21.247Z,94.38
